Terminal Aerodrome Forecast
Issued by NWS Tampa Bay Area, FL

Home | Current Version | Previous Version | Text Only | Print | Product List | Glossary On
Versions: 1 2 3 4 5 6 7 8 9 10 11 12 13 14 15 16
000
FTUS42 KTBW 241700
TAFFMY
TAF
KFMY 241740Z 2418/2518 22008KT P6SM VCTS FEW040CB SCT060
     FM250000 14006KT P6SM SCT250
     FM250800 VRB03KT P6SM SCT250
     FM251600 20006KT P6SM VCTS SCT035CB BKN250=

USA.gov is the U.S. government's official web portal to all federal, state and local government web resources and services.